Wind From: 11-12-2017 04:25 Until: 16:00 warning for: Wind Level: Orange info button

Power and phone distribution networks may be disrupted for relatively long periods., Roofs and chimneys can be damaged. , Tree branches may break. , Vehicles can be deported. , Traffic may be disrupted, particularly on secondary roads in forest areas. Limit your trips. , Limit your speed in highway driving, especially if you drive a vehicle or hitch sensitive to wind. , Do not go for walks in forests or along the coast., In town, be vigilant against possible falling objects., Do not work on roofs and do not touch any electrical line fallen on the ground., Store or secure sensitive objects to wind or likely to be damaged., Always install power generators outside buildings. 


Meteo18 Weather Cam more information Meteo18 Weather Cam


Thunder radar more information blitzortung!


Rain radar more information rain snow radar


Visit our other weather sites:

Template documentation
and downloads

And another site



Weather Underground History page Text

Daily Summary for May 6, 2017 Units:  English    Metric   Both
« Previous Day
Next Day »
Daily Weekly Monthly Yearly Custom
  High: Low: Average:
Temperature: 60.3 °F 51.4 °F 55.4 °F
Dew Point: 54.5 °F 45.5 °F 50 °F
Humidity: 95 % 67 % 83 %
Wind Speed: 19 mph 0 mph 5.5 mph
Wind Gust: 26 mph - -
Wind:- - SSW
Pressure: 30 in 29.7 in -
Precipitation: 0.17 in    
Historical Graphs
 
 
Tabular Data for May 6, 2017
Time Temperature Dew Point Pressure Wind Wind Speed Wind Gust Humidity Rainfall Rate (Hourly)
00:02 55.9 °F 45.5 °F 29.8 in NNE 3 mph 7 mph 68 % 0 in
00:07 56.1 °F 45.7 °F 29.8 in NE 3 mph 7 mph 68 % 0 in
00:12 56.3 °F 45.5 °F 29.8 in NE 3 mph 7 mph 67 % 0 in
00:17 56.5 °F 45.7 °F 29.8 in NNE 5 mph 5 mph 67 % 0 in
00:22 56.3 °F 45.5 °F 29.8 in NE 5 mph 6 mph 67 % 0 in
00:27 56.1 °F 45.7 °F 29.8 in NE 3 mph 8 mph 68 % 0 in
00:32 55.9 °F 45.5 °F 29.8 in NE 2 mph 8 mph 68 % 0 in
00:42 55.6 °F 45.5 °F 29.8 in NE 4 mph 7 mph 69 % 0 in
00:47 55.2 °F 45.7 °F 29.8 in NE 4 mph 7 mph 70 % 0 in
00:52 55.4 °F 45.9 °F 29.8 in NE 3 mph 7 mph 70 % 0 in
00:57 55.4 °F 45.9 °F 29.8 in NE 2 mph 5 mph 70 % 0 in
01:02 55.4 °F 45.9 °F 29.8 in NNE 3 mph 5 mph 70 % 0 in
01:07 55.2 °F 45.7 °F 29.8 in NNE 4 mph 6 mph 70 % 0 in
01:12 55.6 °F 46 °F 29.8 in NE 6 mph 6 mph 70 % 0 in
01:17 55.4 °F 46.2 °F 29.8 in North 2 mph 6 mph 71 % 0 in
01:22 55.2 °F 46 °F 29.8 in NNE 3 mph 6 mph 71 % 0 in
01:27 55 °F 46.2 °F 29.8 in North 2 mph 6 mph 72 % 0 in
01:32 54.9 °F 46 °F 29.8 in Calm   4 mph 72 % 0 in
01:37 55 °F 46.2 °F 29.8 in Calm   3 mph 72 % 0 in
01:42 55 °F 45.9 °F 29.8 in Calm   3 mph 71 % 0 in
01:47 55.2 °F 46 °F 29.8 in Calm   1 mph 71 % 0 in
01:52 55.2 °F 46 °F 29.8 in Calm   1 mph 71 % 0 in
01:57 55.4 °F 46.2 °F 29.8 in North 1 mph 2 mph 71 % 0 in
02:02 55.2 °F 46 °F 29.8 in Calm   2 mph 71 % 0 in
02:07 55.2 °F 46 °F 29.8 in NNE 2 mph 2 mph 71 % 0 in
02:12 55.2 °F 46.4 °F 29.8 in NE 3 mph 3 mph 72 % 0 in
02:17 55.6 °F 46.4 °F 29.8 in NE 3 mph 4 mph 71 % 0 in
02:22 55.4 °F 46.6 °F 29.8 in NE 5 mph 5 mph 72 % 0 in
02:27 55.2 °F 46.4 °F 29.8 in NE 5 mph 6 mph 72 % 0 in
02:32 55 °F 46.2 °F 29.8 in NE 2 mph 6 mph 72 % 0 in
02:37 55 °F 46.6 °F 29.8 in NE 4 mph 6 mph 73 % 0 in
02:42 55 °F 46.6 °F 29.8 in NE 3 mph 6 mph 73 % 0 in
02:47 55 °F 46.6 °F 29.8 in NE 5 mph 6 mph 73 % 0 in
02:52 55 °F 46.9 °F 29.8 in Calm   6 mph 74 % 0 in
02:57 54.9 °F 46.8 °F 29.8 in ENE 1 mph 6 mph 74 % 0 in
03:02 54.7 °F 46.6 °F 29.8 in East 1 mph 6 mph 74 % 0 in
03:07 54.5 °F 46.8 °F 29.8 in East 2 mph 3 mph 75 % 0 in
03:12 54.3 °F 46.6 °F 29.8 in ENE 2 mph 3 mph 75 % 0 in
03:17 54.1 °F 46.4 °F 29.8 in Calm   3 mph 75 % 0 in
03:22 54.1 °F 46.8 °F 29.8 in Calm   3 mph 76 % 0 in
03:27 54.1 °F 46.8 °F 29.8 in Calm   2 mph 76 % 0 in
03:32 54.1 °F 46.4 °F 29.8 in Calm   1 mph 75 % 0 in
03:37 54.3 °F 46.6 °F 29.8 in Calm   1 mph 75 % 0 in
03:42 54.3 °F 46.6 °F 29.7 in Calm   1 mph 75 % 0 in
03:47 54.1 °F 47.5 °F 29.8 in Calm   1 mph 78 % 0 in
03:52 53.8 °F 47.8 °F 29.8 in Calm   1 mph 80 % 0 in
03:57 53.6 °F 47.7 °F 29.7 in Calm   1 mph 80 % 0 in
04:02 53.4 °F 47.1 °F 29.7 in WNW 1 mph 1 mph 79 % 0 in
04:07 53.2 °F 47.3 °F 29.7 in Calm   2 mph 80 % 0 in
04:12 53.4 °F 47.7 °F 29.7 in Calm   2 mph 81 % 0 in
04:17 53.2 °F 47.8 °F 29.7 in Calm   2 mph 82 % 0 in
04:22 52.9 °F 47.8 °F 29.7 in Calm   2 mph 83 % 0 in
04:27 53.2 °F 47.5 °F 29.7 in Calm   2 mph 81 % 0 in
04:32 53.4 °F 47.7 °F 29.7 in Calm   1 mph 81 % 0 in
04:37 53.4 °F 47.7 °F 29.7 in Calm   1 mph 81 % 0 in
04:42 53.2 °F 47.8 °F 29.7 in Calm   1 mph 82 % 0 in
04:47 53.1 °F 48 °F 29.7 in Calm   1 mph 83 % 0 in
04:52 53.1 °F 48 °F 29.7 in Calm   1 mph 83 % 0 in
04:57 53.1 °F 48 °F 29.7 in Calm   1 mph 83 % 0 in
05:02 52.7 °F 48 °F 29.7 in SSW 1 mph 1 mph 84 % 0 in
05:07 52.5 °F 48.2 °F 29.7 in Calm   1 mph 85 % 0 in
05:12 52.3 °F 48.2 °F 29.7 in Calm   1 mph 86 % 0 in
05:17 52.2 °F 48 °F 29.7 in Calm   1 mph 86 % 0 in
05:22 52.2 °F 48 °F 29.7 in Calm   1 mph 86 % 0 in
05:32 52.2 °F 48 °F 29.7 in Calm   1 mph 86 % 0 in
05:37 52.2 °F 47.8 °F 29.7 in Calm   1 mph 85 % 0 in
05:42 52.2 °F 47.8 °F 29.7 in Calm   1 mph 85 % 0 in
05:47 52.2 °F 47.8 °F 29.7 in Calm   1 mph 85 % 0 in
05:52 52.2 °F 47.8 °F 29.7 in Calm   1 mph 85 % 0 in
05:57 52.2 °F 48 °F 29.7 in Calm   1 mph 86 % 0 in
06:02 51.6 °F 47.5 °F 29.8 in Calm   1 mph 86 % 0 in
06:07 51.4 °F 48 °F 29.8 in Calm   1 mph 88 % 0 in
06:12 51.4 °F 48 °F 29.7 in Calm   1 mph 88 % 0 in
06:17 51.6 °F 48.2 °F 29.7 in Calm   1 mph 88 % 0 in
06:27 52.2 °F 48.4 °F 29.7 in Calm   1 mph 87 % 0 in
06:32 52 °F 48.2 °F 29.8 in Calm   1 mph 87 % 0 in
06:47 51.8 °F 48.7 °F 29.8 in SW 2 mph 3 mph 89 % 0.01 in
06:52 51.8 °F 48.7 °F 29.8 in Calm   3 mph 89 % 0.02 in
06:57 51.8 °F 48.7 °F 29.8 in SW 2 mph 3 mph 89 % 0.02 in
07:02 52.2 °F 49.3 °F 29.8 in WSW 4 mph 4 mph 90 % 0.02 in
07:07 52.5 °F 49.6 °F 29.8 in SW 3 mph 6 mph 90 % 0.03 in
07:12 52.5 °F 49.6 °F 29.8 in SSW 3 mph 6 mph 90 % 0.04 in
07:17 52.3 °F 49.5 °F 29.8 in SW 1 mph 6 mph 90 % 0.06 in
07:22 52.2 °F 49.6 °F 29.8 in SW 1 mph 6 mph 91 % 0.06 in
07:27 52 °F 49.6 °F 29.8 in SSW 2 mph 5 mph 92 % 0.06 in
07:32 52 °F 49.6 °F 29.8 in SW 2 mph 3 mph 92 % 0.06 in
07:37 52 °F 50 °F 29.8 in SSW 1 mph 3 mph 93 % 0.06 in
07:42 52.2 °F 50.2 °F 29.8 in SW 3 mph 3 mph 93 % 0.06 in
07:47 52.2 °F 50.2 °F 29.8 in Calm   3 mph 93 % 0.06 in
07:52 52.3 °F 50.4 °F 29.8 in SSW 1 mph 3 mph 93 % 0.05 in
07:57 52.3 °F 50.4 °F 29.8 in SSW 2 mph 3 mph 93 % 0.06 in
08:02 52.3 °F 50.4 °F 29.8 in SSW 1 mph 3 mph 93 % 0.06 in
08:07 52.3 °F 50.4 °F 29.8 in SW 1 mph 4 mph 93 % 0.06 in
08:17 52.3 °F 50.7 °F 29.8 in SSW 2 mph 4 mph 94 % 0.04 in
08:22 52.3 °F 50.7 °F 29.8 in SW 2 mph 3 mph 94 % 0.04 in
08:32 52.3 °F 50.7 °F 29.8 in SSW 4 mph 6 mph 94 % 0.04 in
08:37 52.3 °F 50.7 °F 29.8 in South 2 mph 6 mph 94 % 0.04 in
08:42 52.3 °F 50.7 °F 29.8 in South 3 mph 6 mph 94 % 0.03 in
08:47 52.3 °F 50.7 °F 29.8 in SSW 3 mph 5 mph 94 % 0.03 in
08:52 52.3 °F 50.7 °F 29.8 in South 6 mph 6 mph 94 % 0.03 in
08:57 52.3 °F 50.4 °F 29.8 in SW 7 mph 10 mph 93 % 0.02 in
09:02 52.3 °F 50.4 °F 29.8 in SSW 3 mph 10 mph 93 % 0.01 in
09:07 52.3 °F 50.4 °F 29.8 in SSW 3 mph 10 mph 93 % 0.01 in
09:12 52.3 °F 50.7 °F 29.8 in SSW 4 mph 9 mph 94 % 0.01 in
09:17 52.3 °F 50.7 °F 29.8 in SSW 2 mph 8 mph 94 % 0.01 in
09:22 52.3 °F 50.7 °F 29.8 in SW 4 mph 9 mph 94 % 0.01 in
09:27 52.5 °F 50.9 °F 29.8 in SSW 3 mph 9 mph 94 % 0.01 in
09:32 52.7 °F 51.1 °F 29.8 in South 5 mph 9 mph 94 % 0.01 in
09:37 52.5 °F 50.9 °F 29.8 in SW 7 mph 8 mph 94 % 0.01 in
09:42 52.3 °F 50.7 °F 29.8 in SSW 4 mph 8 mph 94 % 0.01 in
09:47 52.3 °F 50.7 °F 29.8 in SSW 3 mph 9 mph 94 % 0.01 in
09:52 52.5 °F 51.1 °F 29.8 in SW 4 mph 9 mph 95 % 0.01 in
09:57 52.5 °F 50.9 °F 29.8 in SSW 2 mph 7 mph 94 % 0.01 in
10:02 52.5 °F 50.9 °F 29.8 in SE 6 mph 7 mph 94 % 0 in
10:07 52.5 °F 51.1 °F 29.8 in SSW 4 mph 9 mph 95 % 0 in
10:17 52.5 °F 50.9 °F 29.8 in SSW 7 mph 10 mph 94 % 0 in
10:22 52.5 °F 50.9 °F 29.8 in SW 4 mph 10 mph 94 % 0 in
10:27 52.7 °F 51.1 °F 29.8 in South 7 mph 10 mph 94 % 0 in
10:32 52.7 °F 51.1 °F 29.8 in SSW 5 mph 10 mph 94 % 0 in
10:37 52.9 °F 51.3 °F 29.8 in SSW 7 mph 10 mph 94 % 0 in
10:42 52.9 °F 51.3 °F 29.8 in SW 8 mph 10 mph 94 % 0 in
10:47 52.9 °F 51.3 °F 29.8 in SW 7 mph 10 mph 94 % 0 in
10:52 53.1 °F 51.6 °F 29.8 in SSW 5 mph 10 mph 95 % 0 in
10:57 53.1 °F 51.6 °F 29.8 in SSW 5 mph 10 mph 95 % 0 in
11:02 53.2 °F 51.8 °F 29.8 in South 3 mph 10 mph 95 % 0 in
11:07 53.4 °F 52 °F 29.8 in SW 6 mph 10 mph 95 % 0 in
11:17 54.1 °F 52.7 °F 29.8 in SSW 2 mph 8 mph 95 % 0 in
11:22 54.3 °F 52.9 °F 29.8 in SSE 5 mph 8 mph 95 % 0 in
11:27 54.7 °F 53.2 °F 29.8 in SSW 5 mph 9 mph 95 % 0 in
11:32 54.7 °F 53.2 °F 29.8 in WSW 5 mph 9 mph 95 % 0 in
11:37 54.9 °F 53.2 °F 29.8 in WSW 9 mph 9 mph 94 % 0 in
11:42 55 °F 53.4 °F 29.8 in West 12 mph 12 mph 94 % 0 in
11:47 55.2 °F 53.6 °F 29.8 in WSW 6 mph 13 mph 94 % 0.01 in
11:52 55.2 °F 53.6 °F 29.8 in West 6 mph 13 mph 94 % 0.01 in
11:57 55.2 °F 53.6 °F 29.8 in WSW 6 mph 13 mph 94 % 0.02 in
12:02 55.4 °F 53.4 °F 29.8 in West 6 mph 13 mph 93 % 0.02 in
12:12 56.1 °F 53.8 °F 29.8 in West 9 mph 13 mph 92 % 0.02 in
12:17 56.1 °F 53.6 °F 29.8 in WSW 6 mph 15 mph 91 % 0.02 in
12:22 56.3 °F 54 °F 29.8 in SW 2 mph 15 mph 92 % 0.02 in
12:32 55.9 °F 53.6 °F 29.8 in WSW 4 mph 14 mph 92 % 0.02 in
12:42 55.9 °F 54 °F 29.8 in WSW 7 mph 15 mph 93 % 0.03 in
12:47 56.5 °F 54.5 °F 29.8 in SW 4 mph 15 mph 93 % 0.02 in
12:52 57 °F 54.5 °F 29.8 in WSW 11 mph 13 mph 91 % 0.02 in
12:57 57.2 °F 54 °F 29.8 in SW 6 mph 17 mph 89 % 0.02 in
13:02 57.2 °F 54.3 °F 29.8 in SW 9 mph 19 mph 90 % 0.02 in
13:07 56.8 °F 54 °F 29.8 in West 10 mph 19 mph 90 % 0.02 in
13:12 56.7 °F 54.1 °F 29.8 in SW 6 mph 19 mph 91 % 0.02 in
13:17 56.5 °F 54.1 °F 29.8 in SSW 4 mph 15 mph 92 % 0.02 in
13:22 56.3 °F 54 °F 29.8 in West 3 mph 15 mph 92 % 0.02 in
13:27 55.9 °F 53.4 °F 29.8 in WSW 16 mph 16 mph 91 % 0.03 in
13:32 56.1 °F 53.6 °F 29.8 in West 10 mph 23 mph 91 % 0.02 in
13:37 56.7 °F 53.8 °F 29.8 in WNW 10 mph 23 mph 90 % 0.02 in
13:42 56.8 °F 53.6 °F 29.8 in WSW 4 mph 23 mph 89 % 0.02 in
13:47 57 °F 53.8 °F 29.8 in WSW 8 mph 16 mph 89 % 0.02 in
13:52 57 °F 53.8 °F 29.8 in SW 11 mph 16 mph 89 % 0.02 in
13:57 56.8 °F 53.6 °F 29.8 in West 7 mph 16 mph 89 % 0.02 in
14:02 57 °F 53.2 °F 29.8 in West 11 mph 23 mph 87 % 0.02 in
14:07 57 °F 52.9 °F 29.8 in WSW 8 mph 24 mph 86 % 0.02 in
14:12 57.4 °F 52.9 °F 29.8 in WSW 18 mph 24 mph 85 % 0.01 in
14:17 57.2 °F 52.3 °F 29.8 in WSW 11 mph 24 mph 84 % 0.01 in
14:22 57.4 °F 52.9 °F 29.8 in WSW 7 mph 23 mph 85 % 0.01 in
14:27 57.6 °F 53.1 °F 29.8 in West 14 mph 22 mph 85 % 0 in
14:32 57.6 °F 52.5 °F 29.8 in SW 13 mph 21 mph 83 % 0 in
14:37 57.6 °F 51.8 °F 29.8 in WNW 10 mph 20 mph 81 % 0 in
14:42 57.7 °F 52 °F 29.8 in WNW 10 mph 20 mph 81 % 0 in
14:47 57.9 °F 51.8 °F 29.8 in West 19 mph 20 mph 80 % 0 in
14:52 57.9 °F 51.8 °F 29.8 in West 9 mph 19 mph 80 % 0 in
14:57 58.1 °F 51.3 °F 29.8 in WNW 8 mph 23 mph 78 % 0 in
15:02 58.5 °F 50.9 °F 29.8 in West 19 mph 26 mph 76 % 0 in
15:07 58.6 °F 51.1 °F 29.8 in WSW 17 mph 26 mph 76 % 0 in
15:12 58.6 °F 51.1 °F 29.8 in WSW 12 mph 22 mph 76 % 0 in
15:17 58.8 °F 50.9 °F 29.8 in WNW 6 mph 22 mph 75 % 0 in
15:22 58.8 °F 50.9 °F 29.8 in West 19 mph 22 mph 75 % 0 in
15:32 59.2 °F 52.3 °F 29.8 in SSW 8 mph 23 mph 78 % 0 in
15:37 59.4 °F 52.5 °F 29.9 in WSW 4 mph 20 mph 78 % 0 in
15:42 59.5 °F 52.3 °F 29.9 in SW 12 mph 16 mph 77 % 0 in
15:47 59.5 °F 51.3 °F 29.9 in WSW 13 mph 19 mph 74 % 0 in
15:52 59.5 °F 50.9 °F 29.9 in WNW 16 mph 20 mph 73 % 0 in
15:57 59.2 °F 51.3 °F 29.9 in WSW 6 mph 22 mph 75 % 0 in
16:02 58.8 °F 50.5 °F 29.9 in WSW 9 mph 22 mph 74 % 0 in
16:07 59 °F 51.1 °F 29.9 in West 10 mph 22 mph 75 % 0 in
16:12 59.4 °F 51.1 °F 29.9 in West 5 mph 22 mph 74 % 0 in
16:17 59.5 °F 50.9 °F 29.9 in West 12 mph 20 mph 73 % 0 in
16:22 59.7 °F 51.4 °F 29.9 in SW 6 mph 23 mph 74 % 0 in
16:32 60.3 °F 50.9 °F 29.9 in WSW 10 mph 23 mph 71 % 0 in
16:37 60.3 °F 50.9 °F 29.9 in WNW 9 mph 22 mph 71 % 0 in
16:42 60.3 °F 50.9 °F 29.9 in West 8 mph 20 mph 71 % 0 in
16:47 59.7 °F 50.4 °F 29.9 in West 11 mph 20 mph 71 % 0 in
16:57 59.2 °F 51.3 °F 29.9 in WSW 6 mph 20 mph 75 % 0 in
17:02 58.8 °F 51.3 °F 29.9 in West 6 mph 19 mph 76 % 0 in
17:07 58.5 °F 51.6 °F 29.9 in West 12 mph 16 mph 78 % 0 in
17:12 57.7 °F 51.6 °F 29.9 in WSW 12 mph 17 mph 80 % 0 in
17:17 57.4 °F 51.6 °F 29.9 in West 6 mph 17 mph 81 % 0 in
17:22 57.6 °F 52.2 °F 29.9 in SW 5 mph 16 mph 82 % 0.01 in
17:27 57.6 °F 52.2 °F 29.9 in West 8 mph 16 mph 82 % 0.01 in
17:32 57.7 °F 52 °F 29.9 in WSW 11 mph 17 mph 81 % 0.01 in
17:42 57.7 °F 51.6 °F 29.9 in West 11 mph 17 mph 80 % 0.01 in
17:52 57.7 °F 51.3 °F 29.9 in WSW 11 mph 17 mph 79 % 0.01 in
17:57 57.7 °F 50.9 °F 29.9 in WSW 16 mph 20 mph 78 % 0.01 in
18:02 57.6 °F 51.1 °F 29.9 in SW 13 mph 21 mph 79 % 0.01 in
18:07 57.6 °F 51.1 °F 29.9 in SW 6 mph 21 mph 79 % 0.01 in
18:17 57.2 °F 50.7 °F 29.9 in SW 4 mph 21 mph 79 % 0 in
18:22 57 °F 50.5 °F 29.9 in SW 5 mph 17 mph 79 % 0.01 in
18:32 57 °F 50.9 °F 29.9 in WSW 4 mph 15 mph 80 % 0.01 in
18:42 57.2 °F 50.7 °F 29.9 in WSW 5 mph 15 mph 79 % 0.01 in
18:47 57.4 °F 50.9 °F 29.9 in SW 10 mph 15 mph 79 % 0.01 in
18:52 57.6 °F 51.1 °F 29.9 in WSW 7 mph 15 mph 79 % 0.01 in
18:57 57.7 °F 50.9 °F 29.9 in WSW 7 mph 16 mph 78 % 0.01 in
19:02 57.7 °F 50.5 °F 29.9 in West 14 mph 16 mph 77 % 0.01 in
19:07 57.9 °F 50.7 °F 29.9 in WSW 10 mph 18 mph 77 % 0.01 in
19:12 57.9 °F 50.7 °F 29.9 in WSW 7 mph 18 mph 77 % 0.01 in
19:17 57.9 °F 50.7 °F 29.9 in WSW 8 mph 18 mph 77 % 0.01 in
19:22 57.9 °F 50.7 °F 29.9 in WNW 5 mph 14 mph 77 % 0 in
19:27 57.9 °F 51.1 °F 29.9 in WSW 5 mph 12 mph 78 % 0 in
19:32 57.9 °F 51.1 °F 29.9 in WSW 7 mph 12 mph 78 % 0 in
19:37 57.9 °F 51.4 °F 29.9 in WSW 6 mph 12 mph 79 % 0 in
19:42 57.7 °F 51.3 °F 29.9 in SW 4 mph 12 mph 79 % 0 in
19:47 57.7 °F 51.3 °F 29.9 in West 5 mph 12 mph 79 % 0 in
19:52 57.9 °F 51.1 °F 29.9 in WSW 4 mph 10 mph 78 % 0 in
19:57 57.9 °F 51.1 °F 29.9 in WSW 6 mph 10 mph 78 % 0 in
20:02 57.9 °F 51.1 °F 29.9 in SW 3 mph 11 mph 78 % 0 in
20:07 58.1 °F 50.9 °F 29.9 in WSW 4 mph 12 mph 77 % 0 in
20:12 57.9 °F 50.4 °F 29.9 in WSW 4 mph 13 mph 76 % 0 in
20:17 58.1 °F 50.5 °F 29.9 in WSW 11 mph 13 mph 76 % 0 in
20:22 57.9 °F 50.4 °F 29.9 in WSW 6 mph 13 mph 76 % 0 in
20:27 57.9 °F 50 °F 29.9 in West 11 mph 14 mph 75 % 0 in
20:32 57.9 °F 50 °F 29.9 in West 6 mph 14 mph 75 % 0 in
20:37 57.9 °F 50.4 °F 29.9 in SW 6 mph 14 mph 76 % 0 in
20:42 57.9 °F 50.4 °F 29.9 in SW 8 mph 14 mph 76 % 0 in
20:47 57.7 °F 50.2 °F 29.9 in WSW 6 mph 12 mph 76 % 0 in
20:52 57.7 °F 50.2 °F 29.9 in WSW 5 mph 13 mph 76 % 0 in
20:57 57.7 °F 50.5 °F 29.9 in SSW 5 mph 13 mph 77 % 0 in
21:02 57.6 °F 50.4 °F 29.9 in SW 7 mph 12 mph 77 % 0 in
21:07 57.6 °F 50.7 °F 29.9 in West 7 mph 12 mph 78 % 0 in
21:12 57.6 °F 50.7 °F 29.9 in SW 10 mph 13 mph 78 % 0 in
21:17 57.4 °F 50.9 °F 29.9 in SW 13 mph 13 mph 79 % 0 in
21:27 57.2 °F 51.1 °F 29.9 in SW 8 mph 17 mph 80 % 0 in
21:32 57 °F 50.9 °F 29.9 in SW 10 mph 23 mph 80 % 0 in
21:37 56.8 °F 50.7 °F 29.9 in SW 11 mph 23 mph 80 % 0 in
21:42 56.7 °F 50.5 °F 29.9 in WSW 12 mph 23 mph 80 % 0 in
21:47 56.7 °F 50.9 °F 30 in West 13 mph 19 mph 81 % 0 in
21:52 56.5 °F 50.7 °F 30 in SW 10 mph 19 mph 81 % 0 in
22:02 56.1 °F 50.7 °F 30 in West 6 mph 19 mph 82 % 0 in
22:07 56.1 °F 51.1 °F 30 in West 6 mph 19 mph 83 % 0 in
22:12 55.9 °F 50.9 °F 30 in West 8 mph 19 mph 83 % 0 in
22:17 55.8 °F 50.7 °F 30 in WSW 6 mph 17 mph 83 % 0 in
22:22 55.6 °F 50.9 °F 30 in SW 5 mph 15 mph 84 % 0 in
22:27 55.4 °F 50.7 °F 30 in SW 12 mph 16 mph 84 % 0 in
22:32 55.2 °F 50.7 °F 30 in SW 8 mph 16 mph 85 % 0 in
22:37 55 °F 50.9 °F 30 in SSW 8 mph 16 mph 86 % 0 in
22:42 54.9 °F 50.7 °F 30 in West 5 mph 15 mph 86 % 0 in
22:47 54.9 °F 50.7 °F 30 in WSW 8 mph 16 mph 86 % 0 in
22:52 54.9 °F 50.7 °F 30 in SW 7 mph 19 mph 86 % 0 in
22:57 54.9 °F 50.7 °F 30 in WSW 14 mph 23 mph 86 % 0 in
23:07 54.7 °F 50.9 °F 30 in West 10 mph 23 mph 87 % 0 in
23:12 54.5 °F 50.7 °F 30 in WSW 13 mph 18 mph 87 % 0 in
23:17 54.3 °F 50.9 °F 30 in WSW 14 mph 16 mph 88 % 0 in
23:22 54.3 °F 50.9 °F 30 in WSW 12 mph 18 mph 88 % 0 in
23:32 54.3 °F 50.9 °F 30 in West 7 mph 19 mph 88 % 0 in
23:37 54.1 °F 50.7 °F 30 in West 7 mph 18 mph 88 % 0 in
23:42 54.1 °F 50.9 °F 30 in WSW 11 mph 18 mph 89 % 0 in
23:47 54.1 °F 50.9 °F 30 in SW 6 mph 18 mph 89 % 0 in
23:52 54.1 °F 50.9 °F 30 in WNW 9 mph 20 mph 89 % 0 in
23:57 54.1 °F 50.9 °F 30 in WSW 5 mph 20 mph 89 % 0 in
Meteo18
Compliments of Weather Underground - 4 mb

Script developed by  Jim McMurry - jmcmurry@mwt.net Adapted for the template by  Wim van der Kuil - Leuven-Template.eu

You find our weather info also at:

European Weather Network

Weather Underground

Equipment we use:

Weather-station
Davis Vue

Weather-program
Meteohub

Weather-server
Raspberry PI 2 B+

Provider
1 and 1

Davis Vue

Meteohub

Raspberry PI 2 B+

1 and 1